createdAt,value
2022-10-18T00:02:46.631Z,6.17
2022-10-18T00:05:35.534Z,4.60
2022-10-18T00:08:24.395Z,6.27
2022-10-18T00:11:13.241Z,5.50
2022-10-18T00:14:02.061Z,5.67
2022-10-18T00:16:50.916Z,5.03
2022-10-18T00:19:41.085Z,5.93
2022-10-18T00:22:30.333Z,6.77
2022-10-18T00:25:19.631Z,6.63
2022-10-18T00:28:08.796Z,5.33
2022-10-18T00:30:57.635Z,5.87
2022-10-18T00:33:47.229Z,4.93
2022-10-18T00:36:37.773Z,5.43
2022-10-18T00:39:26.933Z,5.63
2022-10-18T00:42:17.953Z,6.60
2022-10-18T00:45:14.521Z,5.13
2022-10-18T00:48:05.130Z,5.80
2022-10-18T00:50:54.410Z,4.63
2022-10-18T00:53:44.711Z,6.57
2022-10-18T00:56:35.126Z,4.60
2022-10-18T00:59:24.168Z,5.80
2022-10-18T01:02:14.903Z,4.50
2022-10-18T01:05:03.697Z,5.13
2022-10-18T01:08:00.848Z,4.77
2022-10-18T01:10:56.143Z,4.70
2022-10-18T01:13:49.657Z,5.00
2022-10-18T01:16:41.225Z,5.10
2022-10-18T01:19:53.421Z,5.53
2022-10-18T01:22:45.514Z,5.80
2022-10-18T01:25:38.989Z,5.50
2022-10-18T01:28:37.936Z,5.37
2022-10-18T01:31:30.581Z,6.90
2022-10-18T01:34:20.377Z,5.63
2022-10-18T01:37:11.356Z,6.80
2022-10-18T01:40:03.507Z,6.73
2022-10-18T01:42:52.924Z,6.60
2022-10-18T01:45:42.014Z,6.00
2022-10-18T01:48:33.439Z,5.57
2022-10-18T01:51:24.589Z,5.77
2022-10-18T01:54:14.726Z,6.50
2022-10-18T01:57:05.253Z,6.30
2022-10-18T01:59:59.060Z,6.53
2022-10-18T02:02:49.317Z,6.80
2022-10-18T02:05:42.191Z,7.83
2022-10-18T02:08:33.644Z,6.50
2022-10-18T02:11:22.466Z,7.10
2022-10-18T02:14:13.796Z,7.03
2022-10-18T02:17:03.329Z,6.80
2022-10-18T02:19:54.655Z,7.37
2022-10-18T02:22:46.530Z,7.23
2022-10-18T02:25:36.222Z,7.17
2022-10-18T02:31:21.724Z,6.43
2022-10-18T02:34:12.711Z,7.40
2022-10-18T02:37:02.343Z,7.67
2022-10-18T02:39:53.206Z,6.90
2022-10-18T02:42:45.399Z,6.50
2022-10-18T02:45:34.587Z,7.47
2022-10-18T02:48:23.484Z,5.93
2022-10-18T02:51:12.311Z,8.00
2022-10-18T02:54:01.128Z,6.17
2022-10-18T02:56:51.480Z,5.83
2022-10-18T02:59:40.671Z,7.70
2022-10-18T03:02:29.842Z,7.23
2022-10-18T03:05:18.765Z,6.03
2022-10-18T03:08:07.667Z,6.47
2022-10-18T03:10:56.534Z,6.67
2022-10-18T03:13:46.672Z,6.57
2022-10-18T03:16:35.512Z,7.30
2022-10-18T03:19:24.351Z,6.80
2022-10-18T03:22:13.214Z,7.17
2022-10-18T03:25:02.087Z,6.53
2022-10-18T03:27:50.898Z,7.00
2022-10-18T03:30:41.054Z,6.20
2022-10-18T03:33:30.001Z,6.20
2022-10-18T03:36:18.961Z,6.00
2022-10-18T03:39:07.774Z,6.30
2022-10-18T03:41:56.587Z,6.17
2022-10-18T03:44:45.388Z,7.13
2022-10-18T03:47:35.733Z,6.33
2022-10-18T03:50:24.569Z,8.00
2022-10-18T03:53:13.458Z,8.20
2022-10-18T03:56:02.309Z,7.70
2022-10-18T03:58:51.148Z,6.70
2022-10-18T04:01:40.020Z,7.50
2022-10-18T04:04:30.241Z,6.30
2022-10-18T04:07:19.049Z,6.90
2022-10-18T04:10:08.387Z,6.27
2022-10-18T04:12:57.209Z,5.77
2022-10-18T04:15:46.110Z,6.00
2022-10-18T04:18:34.937Z,6.43
2022-10-18T04:21:25.149Z,6.13
2022-10-18T04:24:13.965Z,7.10
2022-10-18T04:27:02.784Z,6.37
2022-10-18T04:29:51.619Z,6.30
2022-10-18T04:32:40.431Z,6.70
2022-10-18T04:35:29.320Z,5.40
2022-10-18T04:38:19.489Z,6.47
2022-10-18T04:41:08.283Z,5.83
2022-10-18T04:43:57.135Z,5.90
2022-10-18T04:46:46.031Z,6.17
2022-10-18T04:49:34.869Z,6.60
2022-10-18T04:52:23.711Z,6.57
2022-10-18T04:55:13.906Z,6.53
2022-10-18T04:58:02.733Z,10.40
2022-10-18T05:00:51.653Z,6.10
2022-10-18T05:03:40.523Z,6.97
2022-10-18T05:06:29.363Z,7.23
2022-10-18T05:09:18.226Z,8.17
2022-10-18T05:12:08.487Z,8.83
2022-10-18T05:14:57.385Z,7.00
2022-10-18T05:17:46.223Z,7.73
2022-10-18T05:20:35.088Z,7.20
2022-10-18T05:23:23.967Z,7.57
2022-10-18T05:26:12.824Z,7.17
2022-10-18T05:29:03.098Z,7.27
2022-10-18T05:31:53.078Z,7.77
2022-10-18T05:34:41.967Z,8.00
2022-10-18T05:37:31.155Z,8.43
2022-10-18T05:40:20.034Z,9.17
2022-10-18T05:43:08.872Z,8.10
2022-10-18T05:45:59.105Z,8.13
2022-10-18T05:48:51.437Z,7.70
2022-10-18T05:51:40.410Z,7.80
2022-10-18T05:54:29.263Z,8.03
2022-10-18T05:57:18.095Z,9.33
2022-10-18T06:00:07.448Z,7.70
2022-10-18T06:03:00.193Z,8.30
2022-10-18T06:05:49.492Z,8.80
2022-10-18T06:08:38.530Z,8.90
2022-10-18T06:11:27.451Z,7.53
2022-10-18T06:14:16.283Z,8.40
2022-10-18T06:17:05.393Z,8.13
2022-10-18T06:19:55.641Z,8.80
2022-10-18T06:22:44.474Z,18.40
2022-10-18T06:25:33.326Z,12.80
2022-10-18T06:28:22.150Z,10.27
2022-10-18T06:31:12.693Z,8.83
2022-10-18T06:34:02.544Z,9.83
2022-10-18T06:36:56.436Z,9.50
2022-10-18T06:39:46.862Z,10.00
2022-10-18T06:42:35.717Z,10.57
2022-10-18T06:45:24.751Z,8.43
2022-10-18T06:48:13.641Z,9.90
2022-10-18T06:51:03.316Z,11.17
2022-10-18T06:54:06.123Z,10.77
2022-10-18T06:57:02.668Z,10.30
2022-10-18T06:59:52.015Z,10.70
2022-10-18T07:02:41.278Z,11.40
2022-10-18T07:05:30.271Z,10.47
2022-10-18T07:08:19.666Z,11.20
2022-10-18T07:11:10.537Z,10.57
2022-10-18T07:14:03.047Z,11.83
2022-10-18T07:16:51.944Z,10.63
2022-10-18T07:19:40.783Z,11.50
2022-10-18T07:22:30.491Z,10.93
2022-10-18T07:25:19.475Z,11.23
2022-10-18T07:28:09.609Z,11.80
2022-10-18T07:31:02.413Z,13.87
2022-10-18T07:33:54.945Z,12.57
2022-10-18T07:36:43.860Z,13.27
2022-10-18T07:39:32.696Z,12.93
2022-10-18T07:42:21.508Z,12.33
2022-10-18T07:45:13.585Z,12.00
2022-10-18T07:48:02.437Z,13.10
2022-10-18T07:50:51.294Z,14.03
2022-10-18T07:53:40.165Z,14.00
2022-10-18T07:56:28.997Z,15.50
2022-10-18T07:59:17.828Z,14.30
2022-10-18T08:02:08.135Z,15.73
2022-10-18T08:04:56.988Z,16.33
2022-10-18T08:07:45.789Z,16.87
2022-10-18T08:10:36.004Z,17.57
2022-10-18T08:13:24.855Z,17.90
2022-10-18T08:16:14.893Z,19.00
2022-10-18T08:19:05.750Z,18.40
2022-10-18T08:21:54.582Z,20.47
2022-10-18T08:24:43.547Z,18.03
2022-10-18T08:27:32.703Z,18.07
2022-10-18T08:30:23.286Z,16.73
2022-10-18T08:33:12.158Z,17.67
2022-10-18T08:36:05.613Z,17.87
2022-10-18T08:38:54.565Z,18.83
2022-10-18T08:41:56.174Z,18.73
2022-10-18T08:44:46.873Z,18.30
2022-10-18T08:47:37.224Z,17.83
2022-10-18T08:50:28.589Z,17.93
2022-10-18T08:53:21.286Z,18.83
2022-10-18T08:56:14.769Z,19.87
2022-10-18T08:59:04.614Z,18.27
2022-10-18T09:02:01.091Z,19.13
2022-10-18T09:04:52.939Z,19.80
2022-10-18T09:07:52.908Z,21.17
2022-10-18T09:10:46.427Z,19.13
2022-10-18T09:13:46.306Z,18.73
2022-10-18T09:16:38.055Z,19.33
2022-10-18T09:19:36.705Z,28.53
2022-10-18T09:22:33.255Z,18.87
2022-10-18T09:25:23.455Z,17.80
2022-10-18T09:28:18.120Z,18.70
2022-10-18T09:31:09.135Z,18.33
2022-10-18T09:34:01.559Z,19.03
2022-10-18T09:36:52.830Z,18.30
2022-10-18T09:39:42.721Z,17.00
2022-10-18T09:42:33.412Z,18.83
2022-10-18T09:45:26.849Z,19.60
2022-10-18T09:48:19.489Z,19.47
2022-10-18T09:51:11.395Z,16.20
2022-10-18T09:54:19.609Z,17.10
2022-10-18T09:57:11.581Z,18.53
2022-10-18T10:00:01.721Z,15.90
2022-10-18T10:02:52.069Z,16.60
2022-10-18T10:05:41.000Z,17.27
2022-10-18T10:08:34.189Z,16.50
2022-10-18T10:11:33.466Z,14.83
2022-10-18T10:14:25.478Z,16.27
2022-10-18T10:17:23.647Z,16.40
2022-10-18T10:20:19.896Z,15.87
2022-10-18T10:23:10.701Z,16.73
2022-10-18T10:26:01.250Z,17.10
2022-10-18T10:28:50.456Z,15.40
2022-10-18T10:31:39.420Z,15.67
2022-10-18T10:34:31.653Z,18.20
2022-10-18T10:37:27.330Z,15.80
2022-10-18T10:40:20.471Z,17.53
2022-10-18T10:43:40.122Z,14.50
2022-10-18T10:46:35.577Z,15.73
2022-10-18T10:49:39.694Z,17.07
2022-10-18T10:52:31.548Z,14.80
2022-10-18T10:55:34.806Z,13.67
2022-10-18T10:58:24.626Z,12.93
2022-10-18T11:01:30.439Z,14.07
2022-10-18T11:04:26.598Z,12.10
2022-10-18T11:07:18.402Z,11.90
2022-10-18T11:10:12.715Z,12.68
2022-10-18T11:13:05.103Z,13.85
2022-10-18T11:15:54.793Z,13.02
2022-10-18T11:18:45.373Z,11.65
2022-10-18T11:21:34.508Z,12.23
2022-10-18T11:24:23.713Z,13.57
2022-10-18T11:27:16.451Z,12.20
2022-10-18T11:30:13.603Z,11.75
2022-10-18T11:33:07.634Z,10.90
2022-10-18T11:36:02.861Z,10.20
2022-10-18T11:38:57.565Z,10.52
2022-10-18T11:41:50.806Z,9.68
2022-10-18T11:44:48.275Z,8.45
2022-10-18T11:47:42.561Z,7.22
2022-10-18T11:50:34.333Z,6.55
2022-10-18T11:53:27.878Z,7.07
2022-10-18T11:56:20.375Z,7.18
2022-10-18T11:59:16.597Z,6.90
2022-10-18T12:02:26.066Z,6.68
2022-10-18T12:05:23.749Z,6.25
2022-10-18T12:08:15.479Z,6.88
2022-10-18T12:11:07.976Z,6.40
2022-10-18T12:13:58.794Z,6.60
2022-10-18T12:16:51.471Z,6.80
2022-10-18T12:19:42.797Z,7.47
2022-10-18T12:22:36.741Z,6.60
2022-10-18T12:25:26.239Z,6.72
2022-10-18T12:28:18.007Z,6.00
2022-10-18T12:31:09.709Z,5.45
2022-10-18T12:34:00.685Z,5.53
2022-10-18T12:36:55.044Z,4.95
2022-10-18T12:40:08.608Z,5.65
2022-10-18T12:42:55.920Z,6.00
2022-10-18T12:45:55.947Z,5.88
2022-10-18T12:48:45.974Z,5.20
2022-10-18T12:51:34.947Z,4.82
2022-10-18T12:54:25.641Z,5.28
2022-10-18T12:57:25.250Z,6.15
2022-10-18T13:00:47.742Z,5.13
2022-10-18T13:03:58.562Z,6.05
2022-10-18T13:07:14.497Z,5.60
2022-10-18T13:10:21.859Z,5.00
2022-10-18T13:13:38.659Z,6.28
2022-10-18T13:16:35.268Z,5.90
2022-10-18T13:19:29.466Z,4.93
2022-10-18T13:22:23.987Z,4.93
2022-10-18T13:25:17.534Z,4.77
2022-10-18T13:28:15.730Z,4.60
2022-10-18T13:31:21.280Z,4.93
2022-10-18T13:34:24.717Z,4.60
2022-10-18T13:37:23.950Z,5.50
2022-10-18T13:40:16.470Z,5.33
2022-10-18T13:43:20.244Z,3.50
2022-10-18T13:46:10.518Z,3.37
2022-10-18T13:49:01.113Z,2.60
2022-10-18T13:51:54.637Z,2.50
2022-10-18T13:54:52.870Z,2.30
2022-10-18T13:57:47.050Z,3.70
2022-10-18T14:00:49.238Z,2.93
2022-10-18T14:03:57.960Z,2.37
2022-10-18T14:06:49.080Z,2.20
2022-10-18T14:09:45.982Z,2.33
2022-10-18T14:12:39.810Z,2.08
2022-10-18T14:15:31.152Z,1.50
2022-10-18T14:18:23.717Z,2.67
2022-10-18T14:21:17.744Z,2.80
2022-10-18T14:24:19.475Z,2.60
2022-10-18T14:27:12.804Z,2.35
2022-10-18T14:30:12.619Z,2.40
2022-10-18T14:33:01.528Z,1.50
2022-10-18T14:36:00.012Z,1.80
2022-10-18T14:38:50.817Z,1.48
2022-10-18T14:41:50.478Z,1.75
2022-10-18T14:44:39.285Z,2.10
2022-10-18T14:47:30.041Z,1.40
2022-10-18T14:50:22.635Z,2.03
2022-10-18T14:53:15.601Z,1.88
2022-10-18T14:56:05.580Z,1.80
2022-10-18T14:58:58.105Z,1.70
2022-10-18T15:01:54.124Z,1.75
2022-10-18T15:04:45.412Z,1.70
2022-10-18T15:07:34.683Z,2.50
2022-10-18T15:10:27.542Z,2.15
2022-10-18T15:13:17.668Z,1.48
2022-10-18T15:16:08.533Z,1.70
2022-10-18T15:19:01.424Z,2.17
2022-10-18T15:22:08.079Z,2.30
2022-10-18T15:25:10.877Z,2.28
2022-10-18T15:28:00.263Z,1.60
2022-10-18T15:30:49.466Z,1.63
2022-10-18T15:33:39.768Z,2.28
2022-10-18T15:36:31.101Z,1.83
2022-10-18T15:39:20.726Z,1.92
2022-10-18T15:42:32.721Z,1.55
2022-10-18T15:45:32.333Z,1.35
2022-10-18T15:48:22.967Z,1.73
2022-10-18T15:51:20.986Z,1.45
2022-10-18T15:54:18.800Z,1.33
2022-10-18T15:57:08.620Z,1.47
2022-10-18T16:00:00.475Z,0.80
2022-10-18T16:02:49.568Z,1.00
2022-10-18T16:05:39.021Z,1.33
2022-10-18T16:08:30.621Z,1.63
2022-10-18T16:11:21.340Z,1.53
2022-10-18T16:14:10.491Z,2.00
2022-10-18T16:17:00.632Z,1.30
2022-10-18T16:19:49.825Z,1.30
2022-10-18T16:22:38.953Z,1.70
2022-10-18T16:25:29.471Z,1.73
2022-10-18T16:28:19.122Z,1.60
2022-10-18T16:31:08.276Z,1.67
2022-10-18T16:33:57.581Z,2.63
2022-10-18T16:36:46.623Z,1.93
2022-10-18T16:39:35.522Z,1.80
2022-10-18T16:42:26.400Z,1.80
2022-10-18T16:45:15.342Z,2.20
2022-10-18T16:48:04.283Z,3.20
2022-10-18T16:50:53.794Z,3.10
2022-10-18T16:53:42.891Z,3.30
2022-10-18T16:56:33.058Z,2.17
2022-10-18T16:59:25.162Z,1.97
2022-10-18T17:02:14.395Z,2.20
2022-10-18T17:05:03.323Z,3.60
2022-10-18T17:07:52.150Z,3.00
2022-10-18T17:10:41.011Z,3.80
2022-10-18T17:13:29.868Z,3.87
2022-10-18T17:16:24.719Z,3.10
2022-10-18T17:19:14.743Z,4.77
2022-10-18T17:22:03.654Z,2.90
2022-10-18T17:24:52.540Z,2.43
2022-10-18T17:27:41.414Z,2.40
2022-10-18T17:30:30.243Z,1.80
2022-10-18T17:33:20.445Z,2.10
2022-10-18T17:36:09.371Z,3.43
2022-10-18T17:38:58.324Z,2.97
2022-10-18T17:41:47.149Z,3.60
2022-10-18T17:44:35.994Z,3.47
2022-10-18T17:47:24.834Z,3.43
2022-10-18T17:50:15.265Z,4.70
2022-10-18T17:53:04.457Z,3.23
2022-10-18T17:56:02.252Z,2.90
2022-10-18T17:58:52.020Z,3.30
2022-10-18T18:01:40.919Z,4.00
2022-10-18T18:04:29.737Z,4.80
2022-10-18T18:07:19.953Z,3.50
2022-10-18T18:10:09.354Z,3.70
2022-10-18T18:12:58.231Z,4.70
2022-10-18T18:15:47.049Z,5.33
2022-10-18T18:18:36.990Z,5.00
2022-10-18T18:21:26.175Z,5.83
2022-10-18T18:24:17.656Z,5.87
2022-10-18T18:27:06.634Z,5.50
2022-10-18T18:29:56.183Z,5.70
2022-10-18T18:32:45.005Z,7.87
2022-10-18T18:35:33.840Z,7.10
2022-10-18T18:38:22.670Z,8.23
2022-10-18T18:41:14.433Z,7.30
2022-10-18T18:44:04.165Z,7.10
2022-10-18T18:46:53.030Z,7.87
2022-10-18T18:49:41.901Z,7.03
2022-10-18T18:52:31.086Z,5.30
2022-10-18T18:55:20.180Z,6.30
2022-10-18T18:58:10.459Z,5.20
2022-10-18T19:00:59.324Z,5.43
2022-10-18T19:03:50.792Z,4.67
2022-10-18T19:06:40.268Z,4.90
2022-10-18T19:09:29.213Z,5.27
2022-10-18T19:12:20.611Z,5.70
2022-10-18T19:15:11.928Z,5.10
2022-10-18T19:18:00.746Z,6.10
2022-10-18T19:20:49.558Z,5.33
2022-10-18T19:23:38.387Z,5.50
2022-10-18T19:26:29.498Z,5.20
2022-10-18T19:29:21.229Z,5.00
2022-10-18T19:32:13.450Z,5.47
2022-10-18T19:35:02.296Z,5.73
2022-10-18T19:37:51.129Z,5.40
2022-10-18T19:40:39.960Z,5.87
2022-10-18T19:43:29.343Z,5.37
2022-10-18T19:46:18.149Z,6.80
2022-10-18T19:49:08.370Z,7.70
2022-10-18T19:51:57.448Z,6.83
2022-10-18T19:54:46.255Z,6.37
2022-10-18T19:57:35.099Z,6.77
2022-10-18T20:00:24.021Z,6.30
2022-10-18T20:03:13.042Z,5.70
2022-10-18T20:06:03.867Z,5.53
2022-10-18T20:08:52.746Z,5.43
2022-10-18T20:11:41.850Z,6.33
2022-10-18T20:14:30.739Z,5.73
2022-10-18T20:17:20.769Z,6.47
2022-10-18T20:20:10.177Z,5.83
2022-10-18T20:23:00.380Z,5.40
2022-10-18T20:25:58.962Z,5.40
2022-10-18T20:28:48.743Z,6.30
2022-10-18T20:31:39.022Z,5.53
2022-10-18T20:34:28.709Z,5.30
2022-10-18T20:37:17.528Z,5.80
2022-10-18T20:40:08.256Z,6.33
2022-10-18T20:43:01.465Z,7.33
2022-10-18T20:45:57.385Z,7.00
2022-10-18T20:48:46.227Z,5.80
2022-10-18T20:51:35.642Z,5.93
2022-10-18T20:54:24.485Z,5.03
2022-10-18T20:57:14.661Z,5.50
2022-10-18T21:00:03.504Z,5.23
2022-10-18T21:02:52.330Z,4.60
2022-10-18T21:05:41.198Z,6.33
2022-10-18T21:08:30.300Z,5.30
2022-10-18T21:11:19.240Z,5.10
2022-10-18T21:14:09.605Z,5.10
2022-10-18T21:16:58.438Z,4.97
2022-10-18T21:19:47.267Z,5.37
2022-10-18T21:22:36.145Z,4.87
2022-10-18T21:25:25.020Z,5.57
2022-10-18T21:28:13.859Z,5.07
2022-10-18T21:31:12.490Z,6.77
2022-10-18T21:34:02.164Z,5.30
2022-10-18T21:36:51.013Z,5.47
2022-10-18T21:39:41.973Z,5.70
2022-10-18T21:42:30.975Z,6.23
2022-10-18T21:45:20.023Z,5.93
2022-10-18T21:48:10.359Z,6.27
2022-10-18T21:51:03.393Z,5.73
2022-10-18T21:53:52.969Z,5.90
2022-10-18T21:56:41.800Z,5.67
2022-10-18T21:59:30.642Z,5.30
2022-10-18T22:02:19.433Z,5.73
2022-10-18T22:05:12.103Z,5.17
2022-10-18T22:08:01.187Z,6.27
2022-10-18T22:10:50.010Z,4.97
2022-10-18T22:13:39.135Z,5.97
2022-10-18T22:16:28.309Z,4.90
2022-10-18T22:19:17.132Z,5.47
2022-10-18T22:22:07.297Z,5.37
2022-10-18T22:24:56.116Z,5.80
2022-10-18T22:27:44.892Z,5.50
2022-10-18T22:30:37.896Z,5.30
2022-10-18T22:33:26.802Z,5.30
2022-10-18T22:36:15.713Z,5.77
2022-10-18T22:39:06.365Z,5.70
2022-10-18T22:41:56.524Z,5.23
2022-10-18T22:44:45.359Z,5.50
2022-10-18T22:47:34.542Z,5.80
2022-10-18T22:50:23.553Z,6.40
2022-10-18T22:53:12.374Z,6.07
2022-10-18T22:56:02.643Z,5.07
2022-10-18T22:58:52.593Z,6.50
2022-10-18T23:01:41.407Z,5.90
2022-10-18T23:04:30.249Z,6.80
2022-10-18T23:07:19.105Z,8.00
2022-10-18T23:10:08.059Z,6.80
2022-10-18T23:12:58.246Z,6.30
2022-10-18T23:15:47.100Z,6.47
2022-10-18T23:18:35.954Z,6.57
2022-10-18T23:21:26.227Z,6.90
2022-10-18T23:24:15.050Z,7.07
2022-10-18T23:27:03.848Z,7.03
2022-10-18T23:29:54.026Z,9.30
2022-10-18T23:32:42.816Z,8.07
2022-10-18T23:35:31.655Z,9.50
2022-10-18T23:38:20.455Z,10.30
2022-10-18T23:41:09.925Z,8.57
2022-10-18T23:43:58.738Z,7.50
2022-10-18T23:46:48.903Z,7.87
2022-10-18T23:49:38.064Z,7.60
2022-10-18T23:52:26.934Z,6.77
2022-10-18T23:55:15.906Z,6.87
2022-10-18T23:58:04.734Z,7.10
